createdAt,value
2018-08-30T00:01:15.528Z,17.17
2018-08-30T00:03:43.208Z,17.12
2018-08-30T00:06:10.634Z,17.09
2018-08-30T00:08:38.111Z,17.04
2018-08-30T00:11:05.720Z,16.99
2018-08-30T00:13:33.212Z,16.96
2018-08-30T00:16:00.681Z,16.91
2018-08-30T00:18:28.277Z,16.88
2018-08-30T00:20:55.753Z,16.84
2018-08-30T00:23:23.249Z,16.76
2018-08-30T00:25:51.252Z,16.69
2018-08-30T00:28:18.753Z,16.63
2018-08-30T00:30:46.190Z,16.60
2018-08-30T00:33:13.913Z,16.57
2018-08-30T00:35:41.378Z,16.53
2018-08-30T00:38:08.828Z,16.50
2018-08-30T00:40:36.512Z,16.45
2018-08-30T00:43:03.960Z,16.43
2018-08-30T00:45:31.422Z,16.41
2018-08-30T00:47:59.185Z,16.37
2018-08-30T00:50:26.641Z,16.37
2018-08-30T00:52:54.084Z,16.36
2018-08-30T00:55:21.767Z,16.33
2018-08-30T00:57:49.202Z,16.34
2018-08-30T01:00:16.996Z,16.34
2018-08-30T01:02:44.720Z,16.34
2018-08-30T01:05:12.184Z,16.36
2018-08-30T01:07:39.645Z,16.37
2018-08-30T01:10:07.407Z,16.39
2018-08-30T01:12:39.382Z,16.40
2018-08-30T01:15:06.989Z,16.41
2018-08-30T01:17:34.648Z,16.42
2018-08-30T01:20:02.153Z,16.42
2018-08-30T01:22:30.278Z,16.42
2018-08-30T01:24:57.983Z,16.42
2018-08-30T01:27:25.520Z,16.43
2018-08-30T01:29:53.080Z,16.45
2018-08-30T01:32:20.871Z,16.46
2018-08-30T01:34:48.407Z,16.46
2018-08-30T01:40:14.287Z,16.46
2018-08-30T01:42:41.825Z,16.46
2018-08-30T01:45:09.297Z,16.46
2018-08-30T01:47:36.971Z,16.47
2018-08-30T01:50:04.593Z,16.48
2018-08-30T01:52:32.060Z,16.49
2018-08-30T01:54:59.597Z,16.48
2018-08-30T01:57:27.071Z,16.48
2018-08-30T01:59:54.578Z,16.48
2018-08-30T02:02:22.356Z,16.49
2018-08-30T02:04:50.031Z,16.48
2018-08-30T02:07:17.489Z,16.48
2018-08-30T02:09:45.142Z,16.50
2018-08-30T02:12:12.611Z,16.51
2018-08-30T02:14:40.105Z,16.51
2018-08-30T02:17:07.876Z,16.51
2018-08-30T02:19:35.306Z,16.50
2018-08-30T02:22:02.794Z,16.50
2018-08-30T02:24:30.508Z,16.48
2018-08-30T02:26:57.961Z,16.47
2018-08-30T02:29:25.435Z,16.47
2018-08-30T02:31:53.233Z,16.47
2018-08-30T02:34:20.746Z,16.46
2018-08-30T02:36:48.319Z,16.44
2018-08-30T02:39:16.112Z,16.44
2018-08-30T02:41:43.511Z,16.42
2018-08-30T02:44:11.003Z,16.40
2018-08-30T02:46:38.758Z,16.39
2018-08-30T02:49:06.401Z,16.37
2018-08-30T02:51:33.825Z,16.32
2018-08-30T02:54:01.630Z,16.28
2018-08-30T02:56:29.116Z,16.23
2018-08-30T02:58:56.592Z,16.18
2018-08-30T03:01:24.202Z,16.16
2018-08-30T03:03:51.890Z,16.13
2018-08-30T03:06:19.404Z,16.10
2018-08-30T03:08:47.236Z,16.08
2018-08-30T03:11:14.724Z,16.06
2018-08-30T03:13:42.228Z,16.06
2018-08-30T03:16:09.880Z,16.05
2018-08-30T03:18:37.348Z,16.03
2018-08-30T03:21:04.878Z,16.01
2018-08-30T03:23:32.611Z,15.99
2018-08-30T03:26:00.096Z,15.98
2018-08-30T03:28:27.511Z,15.95
2018-08-30T03:30:55.221Z,15.94
2018-08-30T03:33:22.713Z,15.93
2018-08-30T03:35:50.170Z,15.94
2018-08-30T03:38:17.895Z,15.94
2018-08-30T03:40:45.399Z,15.95
2018-08-30T03:43:13.167Z,15.94
2018-08-30T03:45:40.839Z,15.93
2018-08-30T03:48:08.363Z,15.92
2018-08-30T03:50:35.865Z,15.92
2018-08-30T03:53:03.739Z,15.90
2018-08-30T03:55:31.242Z,15.88
2018-08-30T03:57:58.705Z,15.89
2018-08-30T04:00:26.497Z,15.87
2018-08-30T04:02:53.933Z,15.86
2018-08-30T04:05:21.580Z,15.85
2018-08-30T04:07:49.315Z,15.84
2018-08-30T04:10:16.777Z,15.83
2018-08-30T04:12:44.225Z,15.82
2018-08-30T04:15:11.814Z,15.80
2018-08-30T04:17:39.248Z,15.81
2018-08-30T04:20:06.813Z,15.78
2018-08-30T04:22:34.510Z,15.77
2018-08-30T04:25:01.997Z,15.76
2018-08-30T04:27:29.534Z,15.75
2018-08-30T04:29:57.239Z,15.72
2018-08-30T04:32:24.744Z,15.71
2018-08-30T04:34:52.221Z,15.70
2018-08-30T04:37:19.923Z,15.70
2018-08-30T04:39:47.396Z,15.69
2018-08-30T04:42:15.837Z,15.68
2018-08-30T04:44:43.717Z,15.68
2018-08-30T04:47:11.193Z,15.69
2018-08-30T04:49:38.703Z,15.71
2018-08-30T04:52:06.371Z,15.71
2018-08-30T04:54:33.870Z,15.74
2018-08-30T04:57:01.346Z,15.75
2018-08-30T04:59:28.984Z,15.73
2018-08-30T05:01:56.437Z,15.72
2018-08-30T05:04:23.944Z,15.70
2018-08-30T05:06:51.576Z,15.68
2018-08-30T05:09:19.084Z,15.69
2018-08-30T05:11:46.539Z,15.66
2018-08-30T05:14:14.140Z,15.67
2018-08-30T05:16:41.623Z,15.68
2018-08-30T05:19:09.098Z,15.69
2018-08-30T05:21:36.824Z,15.69
2018-08-30T05:24:04.366Z,15.71
2018-08-30T05:26:31.784Z,15.73
2018-08-30T05:28:59.435Z,15.76
2018-08-30T05:31:26.950Z,15.79
2018-08-30T05:33:54.436Z,15.86
2018-08-30T05:36:22.030Z,15.91
2018-08-30T05:38:49.556Z,15.96
2018-08-30T05:44:47.664Z,16.09
2018-08-30T05:47:15.091Z,16.13
2018-08-30T05:49:42.532Z,16.19
2018-08-30T05:52:10.220Z,16.23
2018-08-30T05:54:37.702Z,16.29
2018-08-30T05:57:05.189Z,16.34
2018-08-30T05:59:32.931Z,16.40
2018-08-30T06:02:00.382Z,16.45
2018-08-30T06:04:27.898Z,16.50
2018-08-30T06:06:55.851Z,16.56
2018-08-30T06:09:23.349Z,16.61
2018-08-30T06:11:50.834Z,16.66
2018-08-30T06:14:18.399Z,16.71
2018-08-30T06:16:45.872Z,16.74
2018-08-30T06:19:13.359Z,16.77
2018-08-30T06:21:41.091Z,16.82
2018-08-30T06:24:08.639Z,16.87
2018-08-30T06:26:36.085Z,16.91
2018-08-30T06:29:03.957Z,16.96
2018-08-30T06:31:31.411Z,17.00
2018-08-30T06:33:58.846Z,17.03
2018-08-30T06:36:26.566Z,17.08
2018-08-30T06:38:54.070Z,17.11
2018-08-30T06:41:21.712Z,17.16
2018-08-30T06:43:49.449Z,17.19
2018-08-30T06:46:17.014Z,17.25
2018-08-30T06:48:44.561Z,17.30
2018-08-30T06:51:12.132Z,17.30
2018-08-30T06:53:39.586Z,17.39
2018-08-30T06:56:07.086Z,17.42
2018-08-30T06:58:34.813Z,17.47
2018-08-30T07:01:02.192Z,17.52
2018-08-30T07:03:29.720Z,17.56
2018-08-30T07:05:57.477Z,17.62
2018-08-30T07:08:25.176Z,17.68
2018-08-30T07:10:52.589Z,17.73
2018-08-30T07:13:20.587Z,17.78
2018-08-30T07:15:48.049Z,17.82
2018-08-30T07:18:15.602Z,17.87
2018-08-30T07:20:43.377Z,17.90
2018-08-30T07:23:10.845Z,17.92
2018-08-30T07:25:38.264Z,17.94
2018-08-30T07:28:06.045Z,17.97
2018-08-30T07:30:33.440Z,17.99
2018-08-30T07:33:00.916Z,18.03
2018-08-30T07:35:28.607Z,18.08
2018-08-30T07:37:56.134Z,18.10
2018-08-30T07:40:23.540Z,18.13
2018-08-30T07:42:51.140Z,18.16
2018-08-30T07:48:17.202Z,18.22
2018-08-30T07:50:44.780Z,18.26
2018-08-30T07:53:12.230Z,18.29
2018-08-30T07:55:39.895Z,18.32
2018-08-30T07:58:07.376Z,18.34
2018-08-30T08:00:34.802Z,18.37
2018-08-30T08:03:02.382Z,18.40
2018-08-30T08:05:29.931Z,18.44
2018-08-30T08:07:57.431Z,18.46
2018-08-30T08:10:25.368Z,18.47
2018-08-30T08:12:52.838Z,18.50
2018-08-30T08:15:20.330Z,18.52
2018-08-30T08:17:48.040Z,18.54
2018-08-30T08:20:15.476Z,18.57
2018-08-30T08:22:42.936Z,18.61
2018-08-30T08:25:10.737Z,18.63
2018-08-30T08:27:38.161Z,18.64
2018-08-30T08:30:05.906Z,18.66
2018-08-30T08:32:33.698Z,18.70
2018-08-30T08:35:01.131Z,18.72
2018-08-30T08:37:28.630Z,18.74
2018-08-30T08:39:56.354Z,18.76
2018-08-30T08:42:23.857Z,18.79
2018-08-30T08:44:51.378Z,18.81
2018-08-30T08:47:19.058Z,18.85
2018-08-30T08:49:46.511Z,18.89
2018-08-30T08:52:13.974Z,18.96
2018-08-30T08:54:41.616Z,18.98
2018-08-30T08:57:09.117Z,19.02
2018-08-30T08:59:36.568Z,19.07
2018-08-30T09:02:04.321Z,19.12
2018-08-30T09:04:31.833Z,19.19
2018-08-30T09:06:59.331Z,19.25
2018-08-30T09:09:27.080Z,19.32
2018-08-30T09:11:54.810Z,19.38
2018-08-30T09:14:22.301Z,19.44
2018-08-30T09:16:50.005Z,19.52
2018-08-30T09:19:17.519Z,19.59
2018-08-30T09:21:44.939Z,19.65
2018-08-30T09:24:12.528Z,19.69
2018-08-30T09:26:40.036Z,19.71
2018-08-30T09:29:07.617Z,19.72
2018-08-30T09:31:35.190Z,19.76
2018-08-30T09:34:02.658Z,19.81
2018-08-30T09:36:30.158Z,19.90
2018-08-30T09:38:57.967Z,19.99
2018-08-30T09:41:25.453Z,20.10
2018-08-30T09:43:53.022Z,20.25
2018-08-30T09:46:20.746Z,20.39
2018-08-30T09:48:48.215Z,20.53
2018-08-30T09:51:15.700Z,20.63
2018-08-30T09:53:43.359Z,20.73
2018-08-30T09:56:10.871Z,20.82
2018-08-30T09:58:38.352Z,20.93
2018-08-30T10:01:11.364Z,21.05
2018-08-30T10:03:39.170Z,21.19
2018-08-30T10:06:06.730Z,21.28
2018-08-30T10:11:32.674Z,21.43
2018-08-30T10:14:00.384Z,21.48
2018-08-30T10:16:27.873Z,21.54
2018-08-30T10:18:55.496Z,21.61
2018-08-30T10:21:23.008Z,21.68
2018-08-30T10:23:50.474Z,21.79
2018-08-30T10:26:18.146Z,21.92
2018-08-30T10:28:45.667Z,22.04
2018-08-30T10:31:13.083Z,22.10
2018-08-30T10:33:40.754Z,22.13
2018-08-30T10:36:08.243Z,22.13
2018-08-30T10:38:35.678Z,22.11
2018-08-30T10:41:03.652Z,22.10
2018-08-30T10:43:31.112Z,22.12
2018-08-30T10:45:58.546Z,22.16
2018-08-30T10:48:26.106Z,22.17
2018-08-30T10:50:53.516Z,22.19
2018-08-30T10:53:21.036Z,22.20
2018-08-30T10:55:48.568Z,22.21
2018-08-30T10:58:16.075Z,22.26
2018-08-30T11:00:43.740Z,22.26
2018-08-30T11:03:11.661Z,22.26
2018-08-30T11:05:39.233Z,22.25
2018-08-30T11:08:06.746Z,22.28
2018-08-30T11:10:34.437Z,22.27
2018-08-30T11:13:02.088Z,22.27
2018-08-30T11:15:29.738Z,22.24
2018-08-30T11:17:57.464Z,22.23
2018-08-30T11:20:24.940Z,22.16
2018-08-30T11:22:52.371Z,22.07
2018-08-30T11:25:20.058Z,22.00
2018-08-30T11:27:47.605Z,21.91
2018-08-30T11:30:15.075Z,21.83
2018-08-30T11:32:42.655Z,21.74
2018-08-30T11:35:10.092Z,21.72
2018-08-30T11:37:37.649Z,21.75
2018-08-30T11:40:05.421Z,21.79
2018-08-30T11:42:32.849Z,21.85
2018-08-30T11:45:00.503Z,21.93
2018-08-30T11:47:28.195Z,21.99
2018-08-30T11:49:55.709Z,22.03
2018-08-30T11:52:23.380Z,22.10
2018-08-30T11:54:51.121Z,22.21
2018-08-30T11:57:18.962Z,22.32
2018-08-30T11:59:46.484Z,22.43
2018-08-30T12:02:14.353Z,22.51
2018-08-30T12:04:41.938Z,22.54
2018-08-30T12:07:09.488Z,22.59
2018-08-30T12:09:37.346Z,22.61
2018-08-30T12:12:04.982Z,22.54
2018-08-30T12:14:32.458Z,22.47
2018-08-30T12:17:00.486Z,22.37
2018-08-30T12:19:27.932Z,22.29
2018-08-30T12:21:55.413Z,22.25
2018-08-30T12:24:23.155Z,22.23
2018-08-30T12:26:50.784Z,22.20
2018-08-30T12:29:18.444Z,22.18
2018-08-30T12:31:46.071Z,22.16
2018-08-30T12:34:13.633Z,22.11
2018-08-30T12:36:41.383Z,22.08
2018-08-30T12:39:10.677Z,22.11
2018-08-30T12:41:38.345Z,22.13
2018-08-30T12:44:05.871Z,22.22
2018-08-30T12:46:33.590Z,22.30
2018-08-30T12:49:01.085Z,22.34
2018-08-30T12:51:28.951Z,22.35
2018-08-30T12:53:56.341Z,22.35
2018-08-30T12:56:23.983Z,22.34
2018-08-30T12:58:57.045Z,22.27
2018-08-30T13:01:24.790Z,22.18
2018-08-30T13:03:52.291Z,22.11
2018-08-30T13:06:20.015Z,21.94
2018-08-30T13:08:47.822Z,21.96
2018-08-30T13:11:15.343Z,21.96
2018-08-30T13:13:43.021Z,21.87
2018-08-30T13:16:10.417Z,21.93
2018-08-30T13:18:38.118Z,21.87
2018-08-30T13:21:05.639Z,21.79
2018-08-30T13:23:33.562Z,21.69
2018-08-30T13:26:00.979Z,21.60
2018-08-30T13:28:28.388Z,21.50
2018-08-30T13:30:56.071Z,21.38
2018-08-30T13:33:23.810Z,21.29
2018-08-30T13:35:51.298Z,21.20
2018-08-30T13:38:19.134Z,21.13
2018-08-30T13:40:46.746Z,21.06
2018-08-30T13:43:14.022Z,20.97
2018-08-30T13:45:41.778Z,20.91
2018-08-30T13:48:09.255Z,20.87
2018-08-30T13:50:36.677Z,20.79
2018-08-30T13:53:04.451Z,20.72
2018-08-30T13:56:02.665Z,20.64
2018-08-30T13:58:30.546Z,20.53
2018-08-30T14:00:58.182Z,20.44
2018-08-30T14:03:25.753Z,20.38
2018-08-30T14:05:53.227Z,20.34
2018-08-30T14:08:20.683Z,20.30
2018-08-30T14:10:48.237Z,20.23
2018-08-30T14:13:15.895Z,20.17
2018-08-30T14:15:43.305Z,20.15
2018-08-30T14:18:10.823Z,20.12
2018-08-30T14:20:38.642Z,20.13
2018-08-30T14:23:06.119Z,20.11
2018-08-30T14:25:33.550Z,20.08
2018-08-30T14:28:01.270Z,20.00
2018-08-30T14:30:28.724Z,19.93
2018-08-30T14:32:56.220Z,19.87
2018-08-30T14:35:24.078Z,19.82
2018-08-30T14:37:51.519Z,19.78
2018-08-30T14:40:19.062Z,19.76
2018-08-30T14:42:46.700Z,19.74
2018-08-30T14:45:14.185Z,19.72
2018-08-30T14:47:41.894Z,19.57
2018-08-30T14:50:09.454Z,19.64
2018-08-30T14:52:36.899Z,19.60
2018-08-30T14:55:04.634Z,19.58
2018-08-30T14:57:32.278Z,19.59
2018-08-30T14:59:59.728Z,19.58
2018-08-30T15:02:27.159Z,19.56
2018-08-30T15:04:54.756Z,19.55
2018-08-30T15:07:22.304Z,19.54
2018-08-30T15:09:49.730Z,19.47
2018-08-30T15:12:17.372Z,19.42
2018-08-30T15:14:44.806Z,19.35
2018-08-30T15:17:12.345Z,19.33
2018-08-30T15:19:39.911Z,19.32
2018-08-30T15:23:10.275Z,19.29
2018-08-30T15:25:37.768Z,19.27
2018-08-30T15:28:05.867Z,19.25
2018-08-30T15:30:33.444Z,19.20
2018-08-30T15:33:01.058Z,19.16
2018-08-30T15:35:28.646Z,19.10
2018-08-30T15:37:56.077Z,19.06
2018-08-30T15:40:23.779Z,19.03
2018-08-30T15:42:51.304Z,19.02
2018-08-30T15:45:18.918Z,18.97
2018-08-30T15:47:46.586Z,18.86
2018-08-30T15:50:14.051Z,18.77
2018-08-30T15:52:41.565Z,18.70
2018-08-30T15:55:09.103Z,18.64
2018-08-30T15:57:36.585Z,18.60
2018-08-30T16:00:04.366Z,18.53
2018-08-30T16:02:31.978Z,18.45
2018-08-30T16:04:59.407Z,18.35
2018-08-30T16:07:26.849Z,18.30
2018-08-30T16:09:54.571Z,18.23
2018-08-30T16:12:22.173Z,18.14
2018-08-30T16:14:49.691Z,18.08
2018-08-30T16:17:17.500Z,17.99
2018-08-30T16:19:44.817Z,17.96
2018-08-30T16:22:12.361Z,17.90
2018-08-30T16:24:40.443Z,17.85
2018-08-30T16:27:07.979Z,17.76
2018-08-30T16:29:35.490Z,17.69
2018-08-30T16:32:03.139Z,17.62
2018-08-30T16:34:30.676Z,17.57
2018-08-30T16:36:58.159Z,17.53
2018-08-30T16:39:25.783Z,17.50
2018-08-30T16:41:53.457Z,17.46
2018-08-30T16:44:20.993Z,17.39
2018-08-30T16:46:48.632Z,17.34
2018-08-30T16:49:16.078Z,17.29
2018-08-30T16:51:43.588Z,17.25
2018-08-30T16:54:11.146Z,17.20
2018-08-30T16:56:38.614Z,17.16
2018-08-30T16:59:06.145Z,17.14
2018-08-30T17:01:33.948Z,17.11
2018-08-30T17:04:01.385Z,17.06
2018-08-30T17:06:28.977Z,16.99
2018-08-30T17:08:56.699Z,16.90
2018-08-30T17:11:24.222Z,16.83
2018-08-30T17:13:51.706Z,16.80
2018-08-30T17:16:19.329Z,16.77
2018-08-30T17:18:48.879Z,16.74
2018-08-30T17:21:16.371Z,16.70
2018-08-30T17:23:43.999Z,16.66
2018-08-30T17:26:11.699Z,16.64
2018-08-30T17:28:39.196Z,16.59
2018-08-30T17:31:06.853Z,16.54
2018-08-30T17:33:34.364Z,16.49
2018-08-30T17:36:01.888Z,16.44
2018-08-30T17:38:29.629Z,16.40
2018-08-30T17:40:57.230Z,16.39
2018-08-30T17:43:24.639Z,16.37
2018-08-30T17:45:52.182Z,16.34
2018-08-30T17:48:19.728Z,16.32
2018-08-30T17:50:47.182Z,16.29
2018-08-30T17:53:14.749Z,16.27
2018-08-30T17:55:42.298Z,16.23
2018-08-30T17:58:09.930Z,16.20
2018-08-30T18:00:37.454Z,16.17
2018-08-30T18:03:05.146Z,16.15
2018-08-30T18:05:32.587Z,16.13
2018-08-30T18:08:00.071Z,16.08
2018-08-30T18:10:27.521Z,16.05
2018-08-30T18:12:55.006Z,16.04
2018-08-30T18:15:23.614Z,16.04
2018-08-30T18:17:51.087Z,16.02
2018-08-30T18:20:18.537Z,16.00
2018-08-30T18:22:46.183Z,15.98
2018-08-30T18:25:13.655Z,15.96
2018-08-30T18:27:41.248Z,15.94
2018-08-30T18:30:09.698Z,15.92
2018-08-30T18:32:37.219Z,15.90
2018-08-30T18:35:05.944Z,15.87
2018-08-30T18:37:33.476Z,15.85
2018-08-30T18:40:00.941Z,15.84
2018-08-30T18:42:28.468Z,15.83
2018-08-30T18:44:56.063Z,15.82
2018-08-30T18:47:23.533Z,15.78
2018-08-30T18:49:51.098Z,15.77
2018-08-30T18:52:18.589Z,15.75
2018-08-30T18:54:46.106Z,15.74
2018-08-30T18:57:13.575Z,15.74
2018-08-30T18:59:41.201Z,15.73
2018-08-30T19:02:08.695Z,15.72
2018-08-30T19:04:36.136Z,15.69
2018-08-30T19:07:03.783Z,15.67
2018-08-30T19:09:31.262Z,15.68
2018-08-30T19:11:58.722Z,15.66
2018-08-30T19:14:26.327Z,15.64
2018-08-30T19:16:59.658Z,15.62
2018-08-30T19:19:27.613Z,15.58
2018-08-30T19:21:55.152Z,15.55
2018-08-30T19:24:28.238Z,15.53
2018-08-30T19:26:55.766Z,15.49
2018-08-30T19:29:23.397Z,15.47
2018-08-30T19:31:50.901Z,15.46
2018-08-30T19:34:18.556Z,15.45
2018-08-30T19:36:45.956Z,15.45
2018-08-30T19:39:13.454Z,15.42
2018-08-30T19:41:40.957Z,15.39
2018-08-30T19:44:09.008Z,15.38
2018-08-30T19:46:36.464Z,15.36
2018-08-30T19:49:04.080Z,15.34
2018-08-30T19:51:31.587Z,15.33
2018-08-30T19:53:59.140Z,15.33
2018-08-30T19:56:26.591Z,15.33
2018-08-30T19:58:54.025Z,15.33
2018-08-30T20:01:21.524Z,15.34
2018-08-30T20:03:48.978Z,15.34
2018-08-30T20:06:16.407Z,15.35
2018-08-30T20:08:43.860Z,15.34
2018-08-30T20:11:11.378Z,15.33
2018-08-30T20:13:38.857Z,15.32
2018-08-30T20:16:06.377Z,15.32
2018-08-30T20:18:34.054Z,15.32
2018-08-30T20:21:01.613Z,15.32
2018-08-30T20:23:29.078Z,15.32
2018-08-30T20:25:56.529Z,15.30
2018-08-30T20:28:23.964Z,15.29
2018-08-30T20:30:51.662Z,15.29
2018-08-30T20:33:19.184Z,15.26
2018-08-30T20:35:46.637Z,15.24
2018-08-30T20:38:14.090Z,15.23
2018-08-30T20:40:41.813Z,15.20
2018-08-30T20:43:09.336Z,15.19
2018-08-30T20:45:36.810Z,15.17
2018-08-30T20:48:04.658Z,15.14
2018-08-30T20:50:32.186Z,15.13
2018-08-30T20:52:59.714Z,15.10
2018-08-30T20:55:27.387Z,15.08
2018-08-30T20:57:54.805Z,15.05
2018-08-30T21:00:22.328Z,15.04
2018-08-30T21:02:50.121Z,15.02
2018-08-30T21:05:17.692Z,15.00
2018-08-30T21:07:45.146Z,14.98
2018-08-30T21:10:12.942Z,14.95
2018-08-30T21:12:40.452Z,14.95
2018-08-30T21:15:08.035Z,14.93
2018-08-30T21:17:35.766Z,14.92
2018-08-30T21:20:03.381Z,14.91
2018-08-30T21:22:30.882Z,14.89
2018-08-30T21:24:58.656Z,14.86
2018-08-30T21:27:26.122Z,14.84
2018-08-30T21:29:53.786Z,14.81
2018-08-30T21:32:21.574Z,14.80
2018-08-30T21:34:49.009Z,14.78
2018-08-30T21:37:16.489Z,14.76
2018-08-30T21:39:44.199Z,14.73
2018-08-30T21:42:11.727Z,14.71
2018-08-30T21:44:39.226Z,14.71
2018-08-30T21:47:07.021Z,14.72
2018-08-30T21:49:34.454Z,14.72
2018-08-30T21:52:01.989Z,14.71
2018-08-30T21:54:29.608Z,14.59
2018-08-30T21:56:57.152Z,14.69
2018-08-30T21:59:24.603Z,14.69
2018-08-30T22:01:52.232Z,14.69
2018-08-30T22:04:19.943Z,14.69
2018-08-30T22:06:47.433Z,14.68
2018-08-30T22:09:14.965Z,14.67
2018-08-30T22:11:42.876Z,14.65
2018-08-30T22:14:10.497Z,14.63
2018-08-30T22:16:38.139Z,14.61
2018-08-30T22:19:05.691Z,14.59
2018-08-30T22:21:33.251Z,14.59
2018-08-30T22:24:01.004Z,14.57
2018-08-30T22:26:28.605Z,14.55
2018-08-30T22:28:56.025Z,14.54
2018-08-30T22:31:23.543Z,14.54
2018-08-30T22:33:51.480Z,14.52
2018-08-30T22:36:18.918Z,14.50
2018-08-30T22:38:46.606Z,14.48
2018-08-30T22:41:14.074Z,14.46
2018-08-30T22:43:41.574Z,14.44
2018-08-30T22:46:09.237Z,14.42
2018-08-30T22:48:36.781Z,14.40
2018-08-30T22:51:04.241Z,14.38
2018-08-30T22:53:31.962Z,14.37
2018-08-30T22:55:59.397Z,14.35
2018-08-30T22:58:26.855Z,14.34
2018-08-30T23:00:54.395Z,14.33
2018-08-30T23:03:21.839Z,14.32
2018-08-30T23:05:49.356Z,14.32
2018-08-30T23:08:17.101Z,14.30
2018-08-30T23:10:44.523Z,14.29
2018-08-30T23:13:11.995Z,14.28
2018-08-30T23:15:39.665Z,14.28
2018-08-30T23:18:07.176Z,14.27
2018-08-30T23:20:34.599Z,14.26
2018-08-30T23:23:02.149Z,14.25
2018-08-30T23:25:29.611Z,14.23
2018-08-30T23:27:57.043Z,14.22
2018-08-30T23:30:24.626Z,14.22
2018-08-30T23:32:52.036Z,14.22
2018-08-30T23:35:19.652Z,14.22
2018-08-30T23:37:47.291Z,14.22
2018-08-30T23:40:14.751Z,14.21
2018-08-30T23:42:42.183Z,14.21
2018-08-30T23:45:09.939Z,14.19
2018-08-30T23:47:37.531Z,14.20
2018-08-30T23:50:05.453Z,14.19
2018-08-30T23:52:33.103Z,14.18
2018-08-30T23:55:00.599Z,14.17
2018-08-30T23:57:28.088Z,14.16
